sensor_id;sensor_type;location;lat;lon;timestamp;pressure;altitude;pressure_sealevel;temperature;humidity
9774;BME280;4926;42.670;23.316;2022-09-09T00:02:00;94747.34;;;20.11;90.60
9774;BME280;4926;42.670;23.316;2022-09-09T00:04:29;94750.75;;;19.96;92.84
9774;BME280;4926;42.670;23.316;2022-09-09T00:07:03;94742.19;;;19.94;92.26
9774;BME280;4926;42.670;23.316;2022-09-09T00:09:36;94744.44;;;19.92;92.56
9774;BME280;4926;42.670;23.316;2022-09-09T00:12:11;94753.44;;;19.84;93.80
9774;BME280;4926;42.670;23.316;2022-09-09T00:14:49;94752.00;;;19.74;93.73
9774;BME280;4926;42.670;23.316;2022-09-09T00:17:32;94756.38;;;19.79;93.71
9774;BME280;4926;42.670;23.316;2022-09-09T00:20:11;94748.72;;;19.93;92.52
9774;BME280;4926;42.670;23.316;2022-09-09T00:22:43;94741.53;;;19.85;93.27
9774;BME280;4926;42.670;23.316;2022-09-09T00:25:23;94731.84;;;19.84;91.91
9774;BME280;4926;42.670;23.316;2022-09-09T00:27:56;94728.94;;;19.89;90.38
9774;BME280;4926;42.670;23.316;2022-09-09T00:30:24;94727.44;;;19.91;90.59
9774;BME280;4926;42.670;23.316;2022-09-09T00:32:54;94723.25;;;20.06;90.77
9774;BME280;4926;42.670;23.316;2022-09-09T00:35:27;94722.47;;;20.06;91.22
9774;BME280;4926;42.670;23.316;2022-09-09T00:38:00;94717.31;;;19.88;90.96
9774;BME280;4926;42.670;23.316;2022-09-09T00:40:32;94708.91;;;19.66;93.33
9774;BME280;4926;42.670;23.316;2022-09-09T00:43:10;94708.25;;;19.45;97.66
9774;BME280;4926;42.670;23.316;2022-09-09T00:48:47;94709.59;;;19.39;100.00
9774;BME280;4926;42.670;23.316;2022-09-09T00:51:26;94710.06;;;19.41;100.00
9774;BME280;4926;42.670;23.316;2022-09-09T00:54:11;94702.50;;;19.46;100.00
9774;BME280;4926;42.670;23.316;2022-09-09T00:56:46;94709.94;;;19.49;99.44
9774;BME280;4926;42.670;23.316;2022-09-09T00:59:23;94711.28;;;19.55;97.96
9774;BME280;4926;42.670;23.316;2022-09-09T01:01:51;94708.38;;;19.48;99.79
9774;BME280;4926;42.670;23.316;2022-09-09T01:04:27;94710.03;;;19.53;99.60
9774;BME280;4926;42.670;23.316;2022-09-09T01:07:03;94708.69;;;19.59;99.10
9774;BME280;4926;42.670;23.316;2022-09-09T01:09:40;94714.97;;;19.63;98.58
9774;BME280;4926;42.670;23.316;2022-09-09T01:12:15;94719.03;;;19.69;97.94
9774;BME280;4926;42.670;23.316;2022-09-09T01:14:47;94712.19;;;19.71;97.53
9774;BME280;4926;42.670;23.316;2022-09-09T01:17:17;94720.06;;;19.76;97.19
9774;BME280;4926;42.670;23.316;2022-09-09T01:19:56;94715.09;;;19.78;96.40
9774;BME280;4926;42.670;23.316;2022-09-09T01:22:33;94717.91;;;19.82;95.78
9774;BME280;4926;42.670;23.316;2022-09-09T01:25:22;94715.22;;;19.82;95.72
9774;BME280;4926;42.670;23.316;2022-09-09T01:27:56;94705.50;;;19.81;94.83
9774;BME280;4926;42.670;23.316;2022-09-09T01:30:26;94702.34;;;19.79;94.72
9774;BME280;4926;42.670;23.316;2022-09-09T01:32:56;94709.31;;;19.92;93.01
9774;BME280;4926;42.670;23.316;2022-09-09T01:35:36;94711.91;;;19.88;92.58
9774;BME280;4926;42.670;23.316;2022-09-09T01:38:05;94717.44;;;19.92;92.10
9774;BME280;4926;42.670;23.316;2022-09-09T01:40:35;94733.06;;;19.98;91.51
9774;BME280;4926;42.670;23.316;2022-09-09T01:43:06;94729.34;;;19.91;92.40
9774;BME280;4926;42.670;23.316;2022-09-09T01:45:33;94719.44;;;19.95;92.28
9774;BME280;4926;42.670;23.316;2022-09-09T01:48:03;94726.00;;;19.94;92.12
9774;BME280;4926;42.670;23.316;2022-09-09T01:50:36;94729.81;;;19.93;92.14
9774;BME280;4926;42.670;23.316;2022-09-09T01:53:04;94739.75;;;19.65;94.93
9774;BME280;4926;42.670;23.316;2022-09-09T01:55:36;94740.78;;;19.60;95.48
9774;BME280;4926;42.670;23.316;2022-09-09T01:58:15;94730.75;;;19.61;95.84
9774;BME280;4926;42.670;23.316;2022-09-09T02:00:53;94733.69;;;19.68;95.45
9774;BME280;4926;42.670;23.316;2022-09-09T02:03:25;94736.16;;;19.73;95.07
9774;BME280;4926;42.670;23.316;2022-09-09T02:06:01;94736.59;;;19.75;94.94
9774;BME280;4926;42.670;23.316;2022-09-09T02:08:40;94735.91;;;19.78;93.91
9774;BME280;4926;42.670;23.316;2022-09-09T02:11:16;94729.25;;;19.75;93.62
9774;BME280;4926;42.670;23.316;2022-09-09T02:13:48;94724.53;;;19.72;93.61
9774;BME280;4926;42.670;23.316;2022-09-09T02:16:22;94706.78;;;19.71;93.65
9774;BME280;4926;42.670;23.316;2022-09-09T02:18:53;94715.41;;;19.77;93.49
9774;BME280;4926;42.670;23.316;2022-09-09T02:21:23;94709.13;;;19.73;93.69
9774;BME280;4926;42.670;23.316;2022-09-09T02:23:52;94710.47;;;19.67;94.18
9774;BME280;4926;42.670;23.316;2022-09-09T02:26:21;94715.66;;;19.60;94.17
9774;BME280;4926;42.670;23.316;2022-09-09T02:28:51;94716.34;;;19.57;94.32
9774;BME280;4926;42.670;23.316;2022-09-09T02:31:22;94712.97;;;19.48;95.06
9774;BME280;4926;42.670;23.316;2022-09-09T02:33:53;94724.47;;;19.45;95.67
9774;BME280;4926;42.670;23.316;2022-09-09T02:36:23;94720.16;;;19.44;96.44
9774;BME280;4926;42.670;23.316;2022-09-09T02:38:51;94726.47;;;19.48;96.74
9774;BME280;4926;42.670;23.316;2022-09-09T02:41:20;94725.69;;;19.35;98.32
9774;BME280;4926;42.670;23.316;2022-09-09T02:43:54;94731.63;;;19.29;99.24
9774;BME280;4926;42.670;23.316;2022-09-09T02:46:32;94736.38;;;19.32;99.31
9774;BME280;4926;42.670;23.316;2022-09-09T02:49:03;94743.75;;;19.23;99.40
9774;BME280;4926;42.670;23.316;2022-09-09T02:51:40;94734.75;;;19.07;99.80
9774;BME280;4926;42.670;23.316;2022-09-09T02:54:17;94727.88;;;19.09;99.06
9774;BME280;4926;42.670;23.316;2022-09-09T02:56:51;94743.63;;;19.19;97.45
9774;BME280;4926;42.670;23.316;2022-09-09T02:59:21;94736.31;;;19.20;97.63
9774;BME280;4926;42.670;23.316;2022-09-09T03:01:50;94732.06;;;19.19;97.34
9774;BME280;4926;42.670;23.316;2022-09-09T03:04:18;94738.78;;;19.13;96.61
9774;BME280;4926;42.670;23.316;2022-09-09T03:06:45;94732.69;;;18.91;97.13
9774;BME280;4926;42.670;23.316;2022-09-09T03:09:12;94737.06;;;18.84;98.08
9774;BME280;4926;42.670;23.316;2022-09-09T03:11:39;94738.31;;;18.86;98.19
9774;BME280;4926;42.670;23.316;2022-09-09T03:14:06;94745.84;;;18.93;98.16
9774;BME280;4926;42.670;23.316;2022-09-09T03:16:34;94744.41;;;18.96;98.22
9774;BME280;4926;42.670;23.316;2022-09-09T03:19:01;94743.25;;;18.97;98.32
9774;BME280;4926;42.670;23.316;2022-09-09T03:21:28;94744.63;;;19.03;97.53
9774;BME280;4926;42.670;23.316;2022-09-09T03:24:00;94715.41;;;18.92;97.49
9774;BME280;4926;42.670;23.316;2022-09-09T03:26:28;94731.59;;;19.05;97.23
9774;BME280;4926;42.670;23.316;2022-09-09T03:28:55;94735.41;;;19.04;97.00
9774;BME280;4926;42.670;23.316;2022-09-09T03:31:22;94735.16;;;18.97;97.28
9774;BME280;4926;42.670;23.316;2022-09-09T03:33:50;94735.16;;;18.97;97.28
9774;BME280;4926;42.670;23.316;2022-09-09T03:36:19;94731.38;;;18.98;96.71
9774;BME280;4926;42.670;23.316;2022-09-09T03:38:49;94743.97;;;19.06;96.25
9774;BME280;4926;42.670;23.316;2022-09-09T03:41:16;94726.78;;;19.10;94.55
9774;BME280;4926;42.670;23.316;2022-09-09T03:43:43;94731.03;;;19.11;94.50
9774;BME280;4926;42.670;23.316;2022-09-09T03:46:10;94723.06;;;19.15;93.87
9774;BME280;4926;42.670;23.316;2022-09-09T03:48:37;94731.38;;;19.10;94.47
9774;BME280;4926;42.670;23.316;2022-09-09T03:51:05;94729.72;;;19.17;94.83
9774;BME280;4926;42.670;23.316;2022-09-09T03:53:32;94734.44;;;19.20;94.32
9774;BME280;4926;42.670;23.316;2022-09-09T03:55:59;94737.47;;;19.19;94.06
9774;BME280;4926;42.670;23.316;2022-09-09T03:58:27;94738.91;;;19.16;93.28
9774;BME280;4926;42.670;23.316;2022-09-09T04:00:55;94739.38;;;19.18;92.95
9774;BME280;4926;42.670;23.316;2022-09-09T04:03:28;94748.78;;;19.12;92.42
9774;BME280;4926;42.670;23.316;2022-09-09T04:05:57;94747.44;;;18.94;94.03
9774;BME280;4926;42.670;23.316;2022-09-09T04:08:26;94743.25;;;18.97;94.64
9774;BME280;4926;42.670;23.316;2022-09-09T04:10:55;94734.63;;;19.03;95.10
9774;BME280;4926;42.670;23.316;2022-09-09T04:13:23;94744.28;;;19.04;95.38
9774;BME280;4926;42.670;23.316;2022-09-09T04:15:51;94741.94;;;19.03;96.60
9774;BME280;4926;42.670;23.316;2022-09-09T04:18:18;94732.88;;;18.74;100.00
9774;BME280;4926;42.670;23.316;2022-09-09T04:20:46;94727.25;;;18.67;100.00
9774;BME280;4926;42.670;23.316;2022-09-09T04:23:13;94735.53;;;18.62;100.00
9774;BME280;4926;42.670;23.316;2022-09-09T04:25:45;94742.72;;;18.58;100.00
9774;BME280;4926;42.670;23.316;2022-09-09T04:28:16;94741.59;;;18.59;100.00
9774;BME280;4926;42.670;23.316;2022-09-09T04:30:43;94741.41;;;18.64;100.00
9774;BME280;4926;42.670;23.316;2022-09-09T04:33:10;94747.31;;;18.58;100.00
9774;BME280;4926;42.670;23.316;2022-09-09T04:35:38;94746.63;;;18.49;100.00
9774;BME280;4926;42.670;23.316;2022-09-09T04:38:05;94748.06;;;18.46;100.00
9774;BME280;4926;42.670;23.316;2022-09-09T04:40:32;94749.88;;;18.34;100.00
9774;BME280;4926;42.670;23.316;2022-09-09T04:43:02;94753.31;;;18.43;100.00
9774;BME280;4926;42.670;23.316;2022-09-09T04:45:30;94758.16;;;18.49;100.00
9774;BME280;4926;42.670;23.316;2022-09-09T04:47:57;94752.78;;;18.49;100.00
9774;BME280;4926;42.670;23.316;2022-09-09T04:50:24;94749.88;;;18.34;100.00
9774;BME280;4926;42.670;23.316;2022-09-09T04:52:56;94731.88;;;18.26;100.00
9774;BME280;4926;42.670;23.316;2022-09-09T04:55:27;94737.88;;;18.31;100.00
9774;BME280;4926;42.670;23.316;2022-09-09T04:57:56;94736.53;;;18.37;100.00
9774;BME280;4926;42.670;23.316;2022-09-09T05:00:25;94732.28;;;18.36;100.00
9774;BME280;4926;42.670;23.316;2022-09-09T05:02:52;94731.75;;;18.43;100.00
9774;BME280;4926;42.670;23.316;2022-09-09T05:05:22;94729.53;;;18.45;100.00
9774;BME280;4926;42.670;23.316;2022-09-09T05:07:48;94725.56;;;18.42;100.00
9774;BME280;4926;42.670;23.316;2022-09-09T05:10:15;94716.09;;;18.36;100.00
9774;BME280;4926;42.670;23.316;2022-09-09T05:12:52;94721.22;;;18.29;100.00
9774;BME280;4926;42.670;23.316;2022-09-09T05:15:22;94724.47;;;18.43;100.00
9774;BME280;4926;42.670;23.316;2022-09-09T05:17:51;94737.16;;;18.43;100.00
9774;BME280;4926;42.670;23.316;2022-09-09T05:20:18;94737.53;;;18.53;100.00
9774;BME280;4926;42.670;23.316;2022-09-09T05:22:48;94718.91;;;18.60;100.00
9774;BME280;4926;42.670;23.316;2022-09-09T05:25:17;94723.66;;;18.75;100.00
9774;BME280;4926;42.670;23.316;2022-09-09T05:27:45;94722.09;;;18.74;100.00
9774;BME280;4926;42.670;23.316;2022-09-09T05:30:12;94727.16;;;18.88;100.00
9774;BME280;4926;42.670;23.316;2022-09-09T05:32:39;94725.97;;;18.98;100.00
9774;BME280;4926;42.670;23.316;2022-09-09T05:35:07;94737.75;;;19.05;100.00
9774;BME280;4926;42.670;23.316;2022-09-09T05:37:35;94732.72;;;19.16;100.00
9774;BME280;4926;42.670;23.316;2022-09-09T05:40:05;94728.72;;;19.34;99.42
9774;BME280;4926;42.670;23.316;2022-09-09T05:42:35;94722.22;;;19.47;98.16
9774;BME280;4926;42.670;23.316;2022-09-09T05:45:02;94726.59;;;19.63;96.55
9774;BME280;4926;42.670;23.316;2022-09-09T05:47:29;94730.97;;;19.56;95.65
9774;BME280;4926;42.670;23.316;2022-09-09T05:49:56;94741.00;;;19.67;94.64
9774;BME280;4926;42.670;23.316;2022-09-09T05:52:24;94736.81;;;19.82;92.85
9774;BME280;4926;42.670;23.316;2022-09-09T05:54:52;94732.94;;;19.95;91.36
9774;BME280;4926;42.670;23.316;2022-09-09T05:57:20;94725.63;;;20.08;91.06
9774;BME280;4926;42.670;23.316;2022-09-09T05:59:50;94735.03;;;20.14;89.20
9774;BME280;4926;42.670;23.316;2022-09-09T06:02:20;94733.38;;;20.09;89.28
9774;BME280;4926;42.670;23.316;2022-09-09T06:04:48;94746.88;;;20.09;88.53
9774;BME280;4926;42.670;23.316;2022-09-09T06:07:15;94754.41;;;20.16;87.77
9774;BME280;4926;42.670;23.316;2022-09-09T06:09:49;94753.97;;;20.14;88.36
9774;BME280;4926;42.670;23.316;2022-09-09T06:12:16;94755.56;;;20.15;87.39
9774;BME280;4926;42.670;23.316;2022-09-09T06:14:43;94749.34;;;20.14;87.32
9774;BME280;4926;42.670;23.316;2022-09-09T06:17:11;94739.22;;;20.23;86.09
9774;BME280;4926;42.670;23.316;2022-09-09T06:19:39;94734.63;;;20.24;84.29
9774;BME280;4926;42.670;23.316;2022-09-09T06:22:06;94759.72;;;20.36;83.78
9774;BME280;4926;42.670;23.316;2022-09-09T06:24:32;94747.59;;;20.46;83.51
9774;BME280;4926;42.670;23.316;2022-09-09T06:27:01;94748.09;;;20.63;82.82
9774;BME280;4926;42.670;23.316;2022-09-09T06:29:27;94750.03;;;20.78;81.28
9774;BME280;4926;42.670;23.316;2022-09-09T06:31:54;94757.34;;;20.90;79.58
9774;BME280;4926;42.670;23.316;2022-09-09T06:34:21;94749.91;;;21.15;78.86
9774;BME280;4926;42.670;23.316;2022-09-09T06:36:48;94748.84;;;21.35;76.93
9774;BME280;4926;42.670;23.316;2022-09-09T06:39:15;94737.56;;;21.64;74.98
9774;BME280;4926;42.670;23.316;2022-09-09T06:41:42;94736.09;;;21.35;73.92
9774;BME280;4926;42.670;23.316;2022-09-09T06:44:10;94726.28;;;21.15;74.33
9774;BME280;4926;42.670;23.316;2022-09-09T06:46:38;94735.13;;;21.43;73.22
9774;BME280;4926;42.670;23.316;2022-09-09T06:49:04;94739.22;;;21.68;72.77
9774;BME280;4926;42.670;23.316;2022-09-09T06:51:35;94746.81;;;21.94;71.74
9774;BME280;4926;42.670;23.316;2022-09-09T06:54:03;94746.59;;;22.18;70.37
9774;BME280;4926;42.670;23.316;2022-09-09T06:56:32;94750.63;;;22.62;69.87
9774;BME280;4926;42.670;23.316;2022-09-09T06:59:01;94746.44;;;23.06;67.14
9774;BME280;4926;42.670;23.316;2022-09-09T07:01:32;94739.41;;;23.24;66.09
9774;BME280;4926;42.670;23.316;2022-09-09T07:04:00;94748.66;;;23.43;65.07
9774;BME280;4926;42.670;23.316;2022-09-09T07:06:30;94744.09;;;23.73;63.99
9774;BME280;4926;42.670;23.316;2022-09-09T07:08:58;94742.22;;;23.99;63.09
9774;BME280;4926;42.670;23.316;2022-09-09T07:11:28;94743.25;;;24.17;61.98
9774;BME280;4926;42.670;23.316;2022-09-09T07:13:56;94739.97;;;24.05;61.83
9774;BME280;4926;42.670;23.316;2022-09-09T07:16:26;94730.41;;;24.18;61.81
9774;BME280;4926;42.670;23.316;2022-09-09T07:18:56;94728.50;;;24.48;60.73
9774;BME280;4926;42.670;23.316;2022-09-09T07:21:24;94715.91;;;24.66;59.64
9774;BME280;4926;42.670;23.316;2022-09-09T07:23:51;94719.94;;;24.79;57.98
9774;BME280;4926;42.670;23.316;2022-09-09T07:26:20;94713.78;;;24.82;58.74
9774;BME280;4926;42.670;23.316;2022-09-09T07:28:48;94717.75;;;24.92;58.83
9774;BME280;4926;42.670;23.316;2022-09-09T07:31:16;94710.72;;;25.27;58.16
9774;BME280;4926;42.670;23.316;2022-09-09T07:33:47;94709.16;;;25.26;57.06
9774;BME280;4926;42.670;23.316;2022-09-09T07:36:16;94712.09;;;25.48;57.38
9774;BME280;4926;42.670;23.316;2022-09-09T07:38:48;94694.00;;;25.73;56.66
9774;BME280;4926;42.670;23.316;2022-09-09T07:41:18;94699.53;;;25.87;54.61
9774;BME280;4926;42.670;23.316;2022-09-09T07:43:47;94710.88;;;25.92;55.16
9774;BME280;4926;42.670;23.316;2022-09-09T07:46:17;94708.75;;;26.19;54.26
9774;BME280;4926;42.670;23.316;2022-09-09T07:48:44;94711.16;;;26.31;53.54
9774;BME280;4926;42.670;23.316;2022-09-09T07:51:17;94708.47;;;26.38;52.90
9774;BME280;4926;42.670;23.316;2022-09-09T07:53:46;94710.25;;;26.13;53.30
9774;BME280;4926;42.670;23.316;2022-09-09T07:56:15;94706.00;;;26.15;53.11
9774;BME280;4926;42.670;23.316;2022-09-09T07:58:45;94710.34;;;26.30;53.92
9774;BME280;4926;42.670;23.316;2022-09-09T08:01:14;94698.41;;;26.67;51.84
9774;BME280;4926;42.670;23.316;2022-09-09T08:03:41;94694.13;;;26.62;51.47
9774;BME280;4926;42.670;23.316;2022-09-09T08:06:10;94699.84;;;26.32;52.74
9774;BME280;4926;42.670;23.316;2022-09-09T08:08:40;94702.66;;;26.47;52.25
9774;BME280;4926;42.670;23.316;2022-09-09T08:11:10;94706.44;;;26.31;52.30
9774;BME280;4926;42.670;23.316;2022-09-09T08:13:38;94694.91;;;26.59;51.72
9774;BME280;4926;42.670;23.316;2022-09-09T08:16:09;94700.44;;;26.84;51.38
9774;BME280;4926;42.670;23.316;2022-09-09T08:18:37;94700.03;;;26.71;51.13
9774;BME280;4926;42.670;23.316;2022-09-09T08:21:06;94701.53;;;26.65;51.52
9774;BME280;4926;42.670;23.316;2022-09-09T08:23:34;94697.59;;;26.52;51.37
9774;BME280;4926;42.670;23.316;2022-09-09T08:26:07;94698.31;;;26.42;50.74
9774;BME280;4926;42.670;23.316;2022-09-09T08:28:38;94700.25;;;26.38;51.29
9774;BME280;4926;42.670;23.316;2022-09-09T08:31:07;94708.41;;;26.27;52.75
9774;BME280;4926;42.670;23.316;2022-09-09T08:33:34;94699.78;;;26.22;52.84
9774;BME280;4926;42.670;23.316;2022-09-09T08:36:04;94692.13;;;26.52;51.65
9774;BME280;4926;42.670;23.316;2022-09-09T08:38:32;94695.31;;;26.68;51.42
9774;BME280;4926;42.670;23.316;2022-09-09T08:41:11;94703.00;;;26.38;51.50
9774;BME280;4926;42.670;23.316;2022-09-09T08:43:46;94694.75;;;26.27;51.42
9774;BME280;4926;42.670;23.316;2022-09-09T08:46:20;94685.44;;;26.39;50.67
9774;BME280;4926;42.670;23.316;2022-09-09T08:48:56;94678.09;;;26.50;50.48
9774;BME280;4926;42.670;23.316;2022-09-09T08:51:26;94680.06;;;26.60;50.03
9774;BME280;4926;42.670;23.316;2022-09-09T08:53:57;94686.38;;;26.68;49.64
9774;BME280;4926;42.670;23.316;2022-09-09T08:56:26;94676.94;;;26.65;49.83
9774;BME280;4926;42.670;23.316;2022-09-09T08:58:56;94684.81;;;26.70;51.01
9774;BME280;4926;42.670;23.316;2022-09-09T09:01:41;94678.63;;;26.98;49.61
9774;BME280;4926;42.670;23.316;2022-09-09T09:04:19;94667.00;;;27.36;48.57
9774;BME280;4926;42.670;23.316;2022-09-09T09:07:01;94662.69;;;27.67;48.69
9774;BME280;4926;42.670;23.316;2022-09-09T09:09:35;94662.69;;;27.81;48.45
9774;BME280;4926;42.670;23.316;2022-09-09T09:12:15;94663.81;;;28.22;47.55
9774;BME280;4926;42.670;23.316;2022-09-09T09:14:44;94653.56;;;28.33;46.82
9774;BME280;4926;42.670;23.316;2022-09-09T09:17:16;94659.09;;;28.22;46.95
9774;BME280;4926;42.670;23.316;2022-09-09T09:19:45;94656.31;;;28.33;46.50
9774;BME280;4926;42.670;23.316;2022-09-09T09:22:20;94655.25;;;28.02;47.38
9774;BME280;4926;42.670;23.316;2022-09-09T09:24:52;94660.75;;;27.67;47.30
9774;BME280;4926;42.670;23.316;2022-09-09T09:27:33;94666.22;;;27.60;48.36
9774;BME280;4926;42.670;23.316;2022-09-09T09:30:14;94664.22;;;27.18;47.88
9774;BME280;4926;42.670;23.316;2022-09-09T09:32:47;94689.53;;;26.84;49.28
9774;BME280;4926;42.670;23.316;2022-09-09T09:35:16;94687.88;;;26.62;50.02
9774;BME280;4926;42.670;23.316;2022-09-09T09:37:45;94683.19;;;26.62;49.43
9774;BME280;4926;42.670;23.316;2022-09-09T09:40:14;94677.63;;;26.34;50.28
9774;BME280;4926;42.670;23.316;2022-09-09T09:42:48;94672.34;;;26.76;50.50
9774;BME280;4926;42.670;23.316;2022-09-09T09:45:28;94653.66;;;26.99;50.05
9774;BME280;4926;42.670;23.316;2022-09-09T09:48:01;94660.69;;;27.07;50.48
9774;BME280;4926;42.670;23.316;2022-09-09T09:50:29;94656.78;;;27.22;49.01
9774;BME280;4926;42.670;23.316;2022-09-09T09:52:58;94650.97;;;27.34;49.30
9774;BME280;4926;42.670;23.316;2022-09-09T09:55:25;94652.94;;;27.30;49.27
9774;BME280;4926;42.670;23.316;2022-09-09T09:57:53;94649.03;;;27.31;49.50
9774;BME280;4926;42.670;23.316;2022-09-09T10:00:23;94638.88;;;27.42;49.25
9774;BME280;4926;42.670;23.316;2022-09-09T10:02:52;94642.75;;;27.41;48.77
9774;BME280;4926;42.670;23.316;2022-09-09T10:05:22;94645.50;;;27.34;49.33
9774;BME280;4926;42.670;23.316;2022-09-09T10:08:03;94653.69;;;27.20;49.49
9774;BME280;4926;42.670;23.316;2022-09-09T10:10:39;94654.44;;;27.03;50.12
9774;BME280;4926;42.670;23.316;2022-09-09T10:13:12;94673.53;;;26.89;51.05
9774;BME280;4926;42.670;23.316;2022-09-09T10:15:50;94671.50;;;26.65;50.40
9774;BME280;4926;42.670;23.316;2022-09-09T10:18:36;94678.53;;;26.66;50.97
9774;BME280;4926;42.670;23.316;2022-09-09T10:21:17;94675.47;;;26.78;51.08
9774;BME280;4926;42.670;23.316;2022-09-09T10:24:10;94676.22;;;26.75;51.04
9774;BME280;4926;42.670;23.316;2022-09-09T10:26:47;94677.78;;;26.69;51.33
9774;BME280;4926;42.670;23.316;2022-09-09T10:29:33;94673.03;;;26.59;51.21
9774;BME280;4926;42.670;23.316;2022-09-09T10:32:20;94682.31;;;26.37;51.70
9774;BME280;4926;42.670;23.316;2022-09-09T10:34:57;94676.44;;;26.35;52.32
9774;BME280;4926;42.670;23.316;2022-09-09T10:37:38;94682.38;;;26.51;52.32
9774;BME280;4926;42.670;23.316;2022-09-09T10:40:22;94680.78;;;26.47;51.72
9774;BME280;4926;42.670;23.316;2022-09-09T10:43:01;94685.13;;;26.58;51.97
9774;BME280;4926;42.670;23.316;2022-09-09T10:45:37;94693.38;;;26.69;51.98
9774;BME280;4926;42.670;23.316;2022-09-09T10:48:30;94692.25;;;26.73;51.86
9774;BME280;4926;42.670;23.316;2022-09-09T10:51:06;94687.56;;;26.77;52.02
9774;BME280;4926;42.670;23.316;2022-09-09T10:53:48;94687.56;;;26.77;51.52
9774;BME280;4926;42.670;23.316;2022-09-09T10:56:20;94691.50;;;26.90;51.29
9774;BME280;4926;42.670;23.316;2022-09-09T10:58:52;94679.38;;;26.84;51.03
9774;BME280;4926;42.670;23.316;2022-09-09T11:01:25;94680.19;;;26.95;51.36
9774;BME280;4926;42.670;23.316;2022-09-09T11:03:57;94673.56;;;27.10;51.00
9774;BME280;4926;42.670;23.316;2022-09-09T11:06:29;94677.09;;;27.04;50.75
9774;BME280;4926;42.670;23.316;2022-09-09T11:08:59;94688.75;;;26.83;51.53
9774;BME280;4926;42.670;23.316;2022-09-09T11:11:32;94692.53;;;26.61;52.11
9774;BME280;4926;42.670;23.316;2022-09-09T11:14:04;94697.78;;;26.12;54.03
9774;BME280;4926;42.670;23.316;2022-09-09T11:16:40;94694.22;;;26.04;54.68
9774;BME280;4926;42.670;23.316;2022-09-09T11:19:17;94686.03;;;26.04;54.52
9774;BME280;4926;42.670;23.316;2022-09-09T11:21:48;94679.53;;;26.26;53.84
9774;BME280;4926;42.670;23.316;2022-09-09T11:24:21;94679.63;;;26.51;53.16
9774;BME280;4926;42.670;23.316;2022-09-09T11:26:53;94669.94;;;26.61;53.30
9774;BME280;4926;42.670;23.316;2022-09-09T11:33:07;94661.31;;;26.55;53.76
9774;BME280;4926;42.670;23.316;2022-09-09T11:35:46;94659.00;;;26.64;54.40
9774;BME280;4926;42.670;23.316;2022-09-09T11:38:20;94655.56;;;26.78;54.50
9774;BME280;4926;42.670;23.316;2022-09-09T11:40:54;94644.22;;;26.72;54.97
9774;BME280;4926;42.670;23.316;2022-09-09T11:43:27;94648.38;;;26.34;55.52
9774;BME280;4926;42.670;23.316;2022-09-09T11:45:57;94643.66;;;26.31;55.89
9774;BME280;4926;42.670;23.316;2022-09-09T11:48:29;94623.88;;;26.59;55.33
9774;BME280;4926;42.670;23.316;2022-09-09T11:51:05;94616.47;;;26.67;55.83
9774;BME280;4926;42.670;23.316;2022-09-09T11:53:47;94610.66;;;26.68;55.88
9774;BME280;4926;42.670;23.316;2022-09-09T11:56:24;94611.84;;;26.67;54.89
9774;BME280;4926;42.670;23.316;2022-09-09T11:59:04;94608.28;;;26.63;54.84
9774;BME280;4926;42.670;23.316;2022-09-09T12:01:38;94615.38;;;26.82;54.93
9774;BME280;4926;42.670;23.316;2022-09-09T12:07:00;94606.81;;;27.68;53.18
9774;BME280;4926;42.670;23.316;2022-09-09T12:09:33;94595.00;;;28.06;52.65
9774;BME280;4926;42.670;23.316;2022-09-09T12:12:22;94586.34;;;28.25;51.56
9774;BME280;4926;42.670;23.316;2022-09-09T12:15:17;94565.34;;;28.73;50.41
9774;BME280;4926;42.670;23.316;2022-09-09T12:17:47;94566.81;;;29.39;49.67
9774;BME280;4926;42.670;23.316;2022-09-09T12:20:19;94566.03;;;29.42;49.14
9774;BME280;4926;42.670;23.316;2022-09-09T12:23:15;94557.38;;;29.44;49.05
9774;BME280;4926;42.670;23.316;2022-09-09T12:25:56;94562.56;;;29.35;49.37
9774;BME280;4926;42.670;23.316;2022-09-09T12:28:27;94559.44;;;29.33;49.23
9774;BME280;4926;42.670;23.316;2022-09-09T12:31:05;94558.34;;;29.23;49.21
9774;BME280;4926;42.670;23.316;2022-09-09T12:33:44;94541.22;;;29.53;48.43
9774;BME280;4926;42.670;23.316;2022-09-09T12:36:14;94540.69;;;29.69;47.60
9774;BME280;4926;42.670;23.316;2022-09-09T12:38:44;94536.06;;;29.58;48.08
9774;BME280;4926;42.670;23.316;2022-09-09T12:41:20;94535.81;;;29.46;48.58
9774;BME280;4926;42.670;23.316;2022-09-09T12:43:50;94538.94;;;29.00;49.48
9774;BME280;4926;42.670;23.316;2022-09-09T12:46:24;94543.03;;;28.71;49.89
9774;BME280;4926;42.670;23.316;2022-09-09T12:48:55;94542.75;;;28.59;50.37
9774;BME280;4926;42.670;23.316;2022-09-09T12:51:26;94549.41;;;28.58;51.11
9774;BME280;4926;42.670;23.316;2022-09-09T12:53:56;94545.56;;;28.41;51.47
9774;BME280;4926;42.670;23.316;2022-09-09T12:56:27;94550.31;;;28.30;52.24
9774;BME280;4926;42.670;23.316;2022-09-09T12:58:56;94542.50;;;28.32;51.84
9774;BME280;4926;42.670;23.316;2022-09-09T13:01:25;94524.19;;;28.15;50.82
9774;BME280;4926;42.670;23.316;2022-09-09T13:03:52;94529.22;;;28.23;51.88
9774;BME280;4926;42.670;23.316;2022-09-09T13:06:24;94527.97;;;28.35;51.42
9774;BME280;4926;42.670;23.316;2022-09-09T13:08:53;94527.63;;;28.26;51.76
9774;BME280;4926;42.670;23.316;2022-09-09T13:11:24;94543.16;;;28.50;51.77
9774;BME280;4926;42.670;23.316;2022-09-09T13:13:54;94533.53;;;28.24;51.69
9774;BME280;4926;42.670;23.316;2022-09-09T13:16:25;94530.38;;;28.26;51.24
9774;BME280;4926;42.670;23.316;2022-09-09T13:18:55;94522.59;;;28.21;51.65
9774;BME280;4926;42.670;23.316;2022-09-09T13:21:31;94520.66;;;28.18;52.13
9774;BME280;4926;42.670;23.316;2022-09-09T13:23:59;94515.97;;;28.15;52.67
9774;BME280;4926;42.670;23.316;2022-09-09T13:26:30;94508.16;;;28.10;51.92
9774;BME280;4926;42.670;23.316;2022-09-09T13:29:09;94512.00;;;28.23;52.01
9774;BME280;4926;42.670;23.316;2022-09-09T13:31:48;94514.84;;;28.02;52.98
9774;BME280;4926;42.670;23.316;2022-09-09T13:34:26;94520.03;;;27.68;53.39
9774;BME280;4926;42.670;23.316;2022-09-09T13:36:59;94502.06;;;27.71;53.98
9774;BME280;4926;42.670;23.316;2022-09-09T13:39:28;94491.13;;;27.71;53.56
9774;BME280;4926;42.670;23.316;2022-09-09T13:41:56;94509.13;;;27.54;53.59
9774;BME280;4926;42.670;23.316;2022-09-09T13:44:25;94502.16;;;27.32;53.38